sensor_id;sensor_type;location;lat;lon;timestamp;P1;durP1;ratioP1;P2;durP2;ratioP2
13649;SDS011;6898;50.918;4.688;2022-09-30T00:01:26;17.33;;;12.90;;
13649;SDS011;6898;50.918;4.688;2022-09-30T00:03:55;15.65;;;12.45;;
13649;SDS011;6898;50.918;4.688;2022-09-30T00:06:24;16.85;;;12.50;;
13649;SDS011;6898;50.918;4.688;2022-09-30T00:08:52;14.02;;;11.88;;
13649;SDS011;6898;50.918;4.688;2022-09-30T00:11:22;17.42;;;12.95;;
13649;SDS011;6898;50.918;4.688;2022-09-30T00:13:51;14.20;;;12.57;;
13649;SDS011;6898;50.918;4.688;2022-09-30T00:16:21;14.43;;;12.63;;
13649;SDS011;6898;50.918;4.688;2022-09-30T00:18:52;16.25;;;12.75;;
13649;SDS011;6898;50.918;4.688;2022-09-30T00:21:22;15.90;;;12.93;;
13649;SDS011;6898;50.918;4.688;2022-09-30T00:23:50;14.27;;;12.77;;
13649;SDS011;6898;50.918;4.688;2022-09-30T00:26:19;15.18;;;13.32;;
13649;SDS011;6898;50.918;4.688;2022-09-30T00:28:48;16.13;;;13.13;;
13649;SDS011;6898;50.918;4.688;2022-09-30T00:31:18;15.70;;;13.00;;
13649;SDS011;6898;50.918;4.688;2022-09-30T00:33:47;14.88;;;13.02;;
13649;SDS011;6898;50.918;4.688;2022-09-30T00:36:34;15.10;;;13.30;;
13649;SDS011;6898;50.918;4.688;2022-09-30T00:39:03;14.38;;;12.48;;
13649;SDS011;6898;50.918;4.688;2022-09-30T00:41:33;13.77;;;12.38;;
13649;SDS011;6898;50.918;4.688;2022-09-30T00:46:46;18.23;;;13.07;;
13649;SDS011;6898;50.918;4.688;2022-09-30T00:49:17;14.43;;;12.52;;
13649;SDS011;6898;50.918;4.688;2022-09-30T00:51:49;15.70;;;12.57;;
13649;SDS011;6898;50.918;4.688;2022-09-30T00:54:20;18.25;;;13.00;;
13649;SDS011;6898;50.918;4.688;2022-09-30T00:56:50;16.15;;;12.65;;
13649;SDS011;6898;50.918;4.688;2022-09-30T00:59:20;14.40;;;12.85;;
13649;SDS011;6898;50.918;4.688;2022-09-30T01:01:52;15.93;;;12.77;;
13649;SDS011;6898;50.918;4.688;2022-09-30T01:04:22;14.52;;;13.02;;
13649;SDS011;6898;50.918;4.688;2022-09-30T01:06:53;13.77;;;12.17;;
13649;SDS011;6898;50.918;4.688;2022-09-30T01:09:21;15.60;;;12.52;;
13649;SDS011;6898;50.918;4.688;2022-09-30T01:11:50;15.55;;;12.68;;
13649;SDS011;6898;50.918;4.688;2022-09-30T01:14:19;15.75;;;12.95;;
13649;SDS011;6898;50.918;4.688;2022-09-30T01:16:51;16.05;;;13.40;;
13649;SDS011;6898;50.918;4.688;2022-09-30T01:22:19;18.05;;;13.88;;
13649;SDS011;6898;50.918;4.688;2022-09-30T01:24:59;16.38;;;13.98;;
13649;SDS011;6898;50.918;4.688;2022-09-30T01:27:46;17.90;;;13.82;;
13649;SDS011;6898;50.918;4.688;2022-09-30T01:30:18;15.67;;;14.03;;
13649;SDS011;6898;50.918;4.688;2022-09-30T01:35:46;16.67;;;14.23;;
13649;SDS011;6898;50.918;4.688;2022-09-30T01:38:17;16.33;;;13.77;;
13649;SDS011;6898;50.918;4.688;2022-09-30T01:40:58;16.58;;;14.20;;
13649;SDS011;6898;50.918;4.688;2022-09-30T01:43:29;15.60;;;13.98;;
13649;SDS011;6898;50.918;4.688;2022-09-30T01:46:00;17.20;;;13.93;;
13649;SDS011;6898;50.918;4.688;2022-09-30T01:48:34;18.55;;;13.70;;
13649;SDS011;6898;50.918;4.688;2022-09-30T01:51:08;16.30;;;13.95;;
13649;SDS011;6898;50.918;4.688;2022-09-30T01:53:38;15.10;;;13.53;;
13649;SDS011;6898;50.918;4.688;2022-09-30T01:56:10;16.10;;;13.95;;
13649;SDS011;6898;50.918;4.688;2022-09-30T01:58:40;15.70;;;13.68;;
13649;SDS011;6898;50.918;4.688;2022-09-30T02:01:11;16.52;;;14.13;;
13649;SDS011;6898;50.918;4.688;2022-09-30T02:03:42;17.90;;;15.33;;
13649;SDS011;6898;50.918;4.688;2022-09-30T02:06:14;18.23;;;15.25;;
13649;SDS011;6898;50.918;4.688;2022-09-30T02:08:49;18.40;;;16.08;;
13649;SDS011;6898;50.918;4.688;2022-09-30T02:11:19;20.63;;;16.92;;
13649;SDS011;6898;50.918;4.688;2022-09-30T02:13:50;19.45;;;17.45;;
13649;SDS011;6898;50.918;4.688;2022-09-30T02:16:21;22.10;;;16.95;;
13649;SDS011;6898;50.918;4.688;2022-09-30T02:18:52;19.80;;;17.60;;
13649;SDS011;6898;50.918;4.688;2022-09-30T02:21:24;21.73;;;17.83;;
13649;SDS011;6898;50.918;4.688;2022-09-30T02:23:56;20.27;;;18.10;;
13649;SDS011;6898;50.918;4.688;2022-09-30T02:26:28;19.95;;;17.85;;
13649;SDS011;6898;50.918;4.688;2022-09-30T02:28:58;19.95;;;16.90;;
13649;SDS011;6898;50.918;4.688;2022-09-30T02:31:29;18.63;;;16.63;;
13649;SDS011;6898;50.918;4.688;2022-09-30T02:34:00;20.45;;;17.33;;
13649;SDS011;6898;50.918;4.688;2022-09-30T02:36:33;21.30;;;18.00;;
13649;SDS011;6898;50.918;4.688;2022-09-30T02:39:05;19.20;;;17.13;;
13649;SDS011;6898;50.918;4.688;2022-09-30T02:41:36;18.67;;;16.52;;
13649;SDS011;6898;50.918;4.688;2022-09-30T02:44:05;19.60;;;16.52;;
13649;SDS011;6898;50.918;4.688;2022-09-30T02:46:38;17.27;;;14.93;;
13649;SDS011;6898;50.918;4.688;2022-09-30T02:49:10;20.25;;;16.02;;
13649;SDS011;6898;50.918;4.688;2022-09-30T02:51:44;18.95;;;16.95;;
13649;SDS011;6898;50.918;4.688;2022-09-30T02:54:18;18.33;;;16.38;;
13649;SDS011;6898;50.918;4.688;2022-09-30T02:56:52;19.15;;;17.08;;
13649;SDS011;6898;50.918;4.688;2022-09-30T02:59:22;21.35;;;18.95;;
13649;SDS011;6898;50.918;4.688;2022-09-30T03:01:51;21.27;;;18.98;;
13649;SDS011;6898;50.918;4.688;2022-09-30T03:04:22;21.13;;;18.83;;
13649;SDS011;6898;50.918;4.688;2022-09-30T03:06:53;21.90;;;18.80;;
13649;SDS011;6898;50.918;4.688;2022-09-30T03:09:23;22.48;;;19.38;;
13649;SDS011;6898;50.918;4.688;2022-09-30T03:11:52;23.95;;;19.70;;
13649;SDS011;6898;50.918;4.688;2022-09-30T03:14:26;24.60;;;20.07;;
13649;SDS011;6898;50.918;4.688;2022-09-30T03:17:21;24.23;;;20.33;;
13649;SDS011;6898;50.918;4.688;2022-09-30T03:20:00;24.13;;;20.10;;
13649;SDS011;6898;50.918;4.688;2022-09-30T03:22:45;23.85;;;20.58;;
13649;SDS011;6898;50.918;4.688;2022-09-30T03:25:19;23.33;;;20.17;;
13649;SDS011;6898;50.918;4.688;2022-09-30T03:27:54;24.95;;;20.70;;
13649;SDS011;6898;50.918;4.688;2022-09-30T03:30:28;25.17;;;20.80;;
13649;SDS011;6898;50.918;4.688;2022-09-30T03:33:01;25.88;;;20.80;;
13649;SDS011;6898;50.918;4.688;2022-09-30T03:35:39;24.13;;;21.15;;
13649;SDS011;6898;50.918;4.688;2022-09-30T03:38:14;25.35;;;20.58;;
13649;SDS011;6898;50.918;4.688;2022-09-30T03:40:51;23.20;;;20.10;;
13649;SDS011;6898;50.918;4.688;2022-09-30T03:43:25;23.42;;;20.05;;
13649;SDS011;6898;50.918;4.688;2022-09-30T03:45:58;21.63;;;19.33;;
13649;SDS011;6898;50.918;4.688;2022-09-30T03:48:28;22.70;;;18.67;;
13649;SDS011;6898;50.918;4.688;2022-09-30T03:50:59;21.65;;;19.02;;
13649;SDS011;6898;50.918;4.688;2022-09-30T03:53:29;20.63;;;18.42;;
13649;SDS011;6898;50.918;4.688;2022-09-30T03:55:58;20.40;;;17.87;;
13649;SDS011;6898;50.918;4.688;2022-09-30T03:58:26;21.08;;;18.88;;
13649;SDS011;6898;50.918;4.688;2022-09-30T04:00:55;20.80;;;17.58;;
13649;SDS011;6898;50.918;4.688;2022-09-30T04:03:24;22.43;;;18.50;;
13649;SDS011;6898;50.918;4.688;2022-09-30T04:05:53;19.45;;;17.17;;
13649;SDS011;6898;50.918;4.688;2022-09-30T04:08:22;18.98;;;16.90;;
13649;SDS011;6898;50.918;4.688;2022-09-30T04:11:00;21.23;;;17.02;;
13649;SDS011;6898;50.918;4.688;2022-09-30T04:13:29;22.13;;;16.97;;
13649;SDS011;6898;50.918;4.688;2022-09-30T04:16:00;22.57;;;18.63;;
13649;SDS011;6898;50.918;4.688;2022-09-30T04:18:28;22.57;;;19.73;;
13649;SDS011;6898;50.918;4.688;2022-09-30T04:20:57;24.17;;;19.98;;
13649;SDS011;6898;50.918;4.688;2022-09-30T04:23:26;23.92;;;20.80;;
13649;SDS011;6898;50.918;4.688;2022-09-30T04:25:55;24.60;;;20.33;;
13649;SDS011;6898;50.918;4.688;2022-09-30T04:28:25;25.92;;;20.58;;
13649;SDS011;6898;50.918;4.688;2022-09-30T04:30:53;25.73;;;20.67;;
13649;SDS011;6898;50.918;4.688;2022-09-30T04:33:22;25.25;;;20.80;;
13649;SDS011;6898;50.918;4.688;2022-09-30T04:35:51;26.67;;;22.10;;
13649;SDS011;6898;50.918;4.688;2022-09-30T04:38:20;25.97;;;21.57;;
13649;SDS011;6898;50.918;4.688;2022-09-30T04:40:50;25.90;;;21.58;;
13649;SDS011;6898;50.918;4.688;2022-09-30T04:43:20;26.63;;;21.98;;
13649;SDS011;6898;50.918;4.688;2022-09-30T04:45:50;24.95;;;21.38;;
13649;SDS011;6898;50.918;4.688;2022-09-30T04:48:19;25.10;;;21.58;;
13649;SDS011;6898;50.918;4.688;2022-09-30T04:50:53;26.23;;;20.95;;
13649;SDS011;6898;50.918;4.688;2022-09-30T04:53:21;26.45;;;20.65;;
13649;SDS011;6898;50.918;4.688;2022-09-30T04:55:50;21.63;;;19.20;;
13649;SDS011;6898;50.918;4.688;2022-09-30T04:58:19;21.70;;;19.25;;
13649;SDS011;6898;50.918;4.688;2022-09-30T05:00:51;23.40;;;20.10;;
13649;SDS011;6898;50.918;4.688;2022-09-30T05:03:21;23.45;;;20.45;;
13649;SDS011;6898;50.918;4.688;2022-09-30T05:05:50;25.33;;;20.48;;
13649;SDS011;6898;50.918;4.688;2022-09-30T05:08:21;24.47;;;19.77;;
13649;SDS011;6898;50.918;4.688;2022-09-30T05:10:58;25.25;;;20.20;;
13649;SDS011;6898;50.918;4.688;2022-09-30T05:13:37;25.52;;;21.02;;
13649;SDS011;6898;50.918;4.688;2022-09-30T05:16:08;25.10;;;20.38;;
13649;SDS011;6898;50.918;4.688;2022-09-30T05:18:37;22.95;;;19.63;;
13649;SDS011;6898;50.918;4.688;2022-09-30T05:21:11;24.70;;;19.73;;
13649;SDS011;6898;50.918;4.688;2022-09-30T05:23:45;24.85;;;19.48;;
13649;SDS011;6898;50.918;4.688;2022-09-30T05:26:13;25.98;;;20.48;;
13649;SDS011;6898;50.918;4.688;2022-09-30T05:28:43;25.92;;;20.73;;
13649;SDS011;6898;50.918;4.688;2022-09-30T05:31:13;25.70;;;20.17;;
13649;SDS011;6898;50.918;4.688;2022-09-30T05:33:42;26.42;;;21.50;;
13649;SDS011;6898;50.918;4.688;2022-09-30T05:36:11;22.83;;;19.98;;
13649;SDS011;6898;50.918;4.688;2022-09-30T05:38:40;24.15;;;19.98;;
13649;SDS011;6898;50.918;4.688;2022-09-30T05:41:09;23.88;;;20.70;;
13649;SDS011;6898;50.918;4.688;2022-09-30T05:43:38;25.97;;;20.87;;
13649;SDS011;6898;50.918;4.688;2022-09-30T05:46:07;25.52;;;20.73;;
13649;SDS011;6898;50.918;4.688;2022-09-30T05:48:37;25.87;;;20.80;;
13649;SDS011;6898;50.918;4.688;2022-09-30T05:51:06;24.83;;;20.83;;
13649;SDS011;6898;50.918;4.688;2022-09-30T05:53:35;24.17;;;21.10;;
13649;SDS011;6898;50.918;4.688;2022-09-30T05:56:05;25.52;;;20.92;;
13649;SDS011;6898;50.918;4.688;2022-09-30T05:58:34;25.63;;;20.83;;
13649;SDS011;6898;50.918;4.688;2022-09-30T06:01:03;26.38;;;21.60;;
13649;SDS011;6898;50.918;4.688;2022-09-30T06:03:39;26.70;;;20.92;;
13649;SDS011;6898;50.918;4.688;2022-09-30T06:06:11;25.63;;;21.63;;
13649;SDS011;6898;50.918;4.688;2022-09-30T06:08:40;28.30;;;22.58;;
13649;SDS011;6898;50.918;4.688;2022-09-30T06:11:10;27.85;;;21.88;;
13649;SDS011;6898;50.918;4.688;2022-09-30T06:13:40;27.58;;;22.15;;
13649;SDS011;6898;50.918;4.688;2022-09-30T06:16:11;29.30;;;23.13;;
13649;SDS011;6898;50.918;4.688;2022-09-30T06:18:41;30.10;;;23.95;;
13649;SDS011;6898;50.918;4.688;2022-09-30T06:21:10;31.67;;;24.08;;
13649;SDS011;6898;50.918;4.688;2022-09-30T06:23:39;32.50;;;24.77;;
13649;SDS011;6898;50.918;4.688;2022-09-30T06:26:09;33.78;;;25.83;;
13649;SDS011;6898;50.918;4.688;2022-09-30T06:28:38;32.90;;;25.23;;
13649;SDS011;6898;50.918;4.688;2022-09-30T06:31:09;32.80;;;25.57;;
13649;SDS011;6898;50.918;4.688;2022-09-30T06:33:37;33.87;;;25.90;;
13649;SDS011;6898;50.918;4.688;2022-09-30T06:36:09;34.70;;;26.65;;
13649;SDS011;6898;50.918;4.688;2022-09-30T06:38:38;34.92;;;27.02;;
13649;SDS011;6898;50.918;4.688;2022-09-30T06:41:06;39.47;;;27.77;;
13649;SDS011;6898;50.918;4.688;2022-09-30T06:43:35;35.00;;;28.20;;
13649;SDS011;6898;50.918;4.688;2022-09-30T06:46:04;39.47;;;29.08;;
13649;SDS011;6898;50.918;4.688;2022-09-30T06:48:39;39.45;;;28.67;;
13649;SDS011;6898;50.918;4.688;2022-09-30T06:51:09;38.25;;;29.58;;
13649;SDS011;6898;50.918;4.688;2022-09-30T06:53:37;43.83;;;30.42;;
13649;SDS011;6898;50.918;4.688;2022-09-30T06:56:06;42.92;;;31.13;;
13649;SDS011;6898;50.918;4.688;2022-09-30T06:58:35;54.33;;;40.83;;
13649;SDS011;6898;50.918;4.688;2022-09-30T07:01:05;41.03;;;30.48;;
13649;SDS011;6898;50.918;4.688;2022-09-30T07:03:34;42.92;;;30.23;;
13649;SDS011;6898;50.918;4.688;2022-09-30T07:06:04;39.72;;;30.30;;
13649;SDS011;6898;50.918;4.688;2022-09-30T07:08:34;43.70;;;31.42;;
13649;SDS011;6898;50.918;4.688;2022-09-30T07:11:08;46.15;;;32.67;;
13649;SDS011;6898;50.918;4.688;2022-09-30T07:13:39;46.53;;;34.07;;
13649;SDS011;6898;50.918;4.688;2022-09-30T07:16:08;47.42;;;35.05;;
13649;SDS011;6898;50.918;4.688;2022-09-30T07:18:37;44.60;;;34.25;;
13649;SDS011;6898;50.918;4.688;2022-09-30T07:21:08;46.22;;;33.88;;
13649;SDS011;6898;50.918;4.688;2022-09-30T07:23:43;45.67;;;33.92;;
13649;SDS011;6898;50.918;4.688;2022-09-30T07:26:13;45.97;;;33.53;;
13649;SDS011;6898;50.918;4.688;2022-09-30T07:28:42;44.83;;;34.87;;
13649;SDS011;6898;50.918;4.688;2022-09-30T07:31:12;44.28;;;34.10;;
13649;SDS011;6898;50.918;4.688;2022-09-30T07:34:05;46.70;;;34.33;;
13649;SDS011;6898;50.918;4.688;2022-09-30T07:36:34;45.97;;;34.72;;
13649;SDS011;6898;50.918;4.688;2022-09-30T07:39:05;46.17;;;34.83;;
13649;SDS011;6898;50.918;4.688;2022-09-30T07:41:36;46.35;;;34.33;;
13649;SDS011;6898;50.918;4.688;2022-09-30T07:44:06;43.55;;;34.15;;
13649;SDS011;6898;50.918;4.688;2022-09-30T07:46:35;42.43;;;33.30;;
13649;SDS011;6898;50.918;4.688;2022-09-30T07:49:11;38.47;;;31.45;;
13649;SDS011;6898;50.918;4.688;2022-09-30T07:51:40;48.53;;;38.83;;
13649;SDS011;6898;50.918;4.688;2022-09-30T07:54:14;41.03;;;33.17;;
13649;SDS011;6898;50.918;4.688;2022-09-30T07:56:43;40.17;;;32.28;;
13649;SDS011;6898;50.918;4.688;2022-09-30T07:59:33;39.50;;;31.48;;
13649;SDS011;6898;50.918;4.688;2022-09-30T08:02:04;35.65;;;29.63;;
13649;SDS011;6898;50.918;4.688;2022-09-30T08:04:33;36.28;;;29.25;;
13649;SDS011;6898;50.918;4.688;2022-09-30T08:07:04;34.08;;;28.92;;
13649;SDS011;6898;50.918;4.688;2022-09-30T08:09:36;34.83;;;30.15;;
13649;SDS011;6898;50.918;4.688;2022-09-30T08:12:10;35.05;;;29.33;;
13649;SDS011;6898;50.918;4.688;2022-09-30T08:14:39;34.85;;;29.65;;
13649;SDS011;6898;50.918;4.688;2022-09-30T08:17:07;33.13;;;27.80;;
13649;SDS011;6898;50.918;4.688;2022-09-30T08:19:36;34.65;;;28.10;;
13649;SDS011;6898;50.918;4.688;2022-09-30T08:22:09;34.38;;;28.10;;
13649;SDS011;6898;50.918;4.688;2022-09-30T08:24:42;32.05;;;27.20;;
13649;SDS011;6898;50.918;4.688;2022-09-30T08:27:11;39.95;;;34.78;;
13649;SDS011;6898;50.918;4.688;2022-09-30T08:29:39;32.25;;;28.05;;
13649;SDS011;6898;50.918;4.688;2022-09-30T08:32:19;32.65;;;27.67;;
13649;SDS011;6898;50.918;4.688;2022-09-30T08:34:47;28.38;;;25.23;;
13649;SDS011;6898;50.918;4.688;2022-09-30T08:37:16;30.75;;;26.52;;
13649;SDS011;6898;50.918;4.688;2022-09-30T08:39:46;32.47;;;26.77;;
13649;SDS011;6898;50.918;4.688;2022-09-30T08:42:24;28.02;;;23.98;;
13649;SDS011;6898;50.918;4.688;2022-09-30T08:45:02;30.38;;;24.77;;
13649;SDS011;6898;50.918;4.688;2022-09-30T08:47:41;29.67;;;25.80;;
13649;SDS011;6898;50.918;4.688;2022-09-30T08:50:14;28.17;;;24.20;;
13649;SDS011;6898;50.918;4.688;2022-09-30T08:52:47;27.70;;;24.65;;
13649;SDS011;6898;50.918;4.688;2022-09-30T08:55:19;29.73;;;24.35;;
13649;SDS011;6898;50.918;4.688;2022-09-30T08:57:48;30.15;;;24.10;;
13649;SDS011;6898;50.918;4.688;2022-09-30T09:00:17;26.63;;;23.33;;
13649;SDS011;6898;50.918;4.688;2022-09-30T09:02:49;30.27;;;23.02;;
13649;SDS011;6898;50.918;4.688;2022-09-30T09:05:23;26.48;;;22.35;;
13649;SDS011;6898;50.918;4.688;2022-09-30T09:07:54;27.40;;;22.13;;
13649;SDS011;6898;50.918;4.688;2022-09-30T09:10:29;23.70;;;20.98;;
13649;SDS011;6898;50.918;4.688;2022-09-30T09:13:03;27.60;;;22.10;;
13649;SDS011;6898;50.918;4.688;2022-09-30T09:15:37;23.90;;;19.13;;
13649;SDS011;6898;50.918;4.688;2022-09-30T09:18:15;25.73;;;20.02;;
13649;SDS011;6898;50.918;4.688;2022-09-30T09:20:52;25.27;;;21.13;;
13649;SDS011;6898;50.918;4.688;2022-09-30T09:23:21;23.07;;;19.77;;
13649;SDS011;6898;50.918;4.688;2022-09-30T09:25:51;23.43;;;19.13;;
13649;SDS011;6898;50.918;4.688;2022-09-30T09:28:23;26.20;;;20.45;;
13649;SDS011;6898;50.918;4.688;2022-09-30T09:30:53;22.75;;;18.85;;
13649;SDS011;6898;50.918;4.688;2022-09-30T09:33:23;20.33;;;14.83;;
13649;SDS011;6898;50.918;4.688;2022-09-30T09:35:57;18.67;;;14.80;;
13649;SDS011;6898;50.918;4.688;2022-09-30T09:38:28;22.42;;;15.75;;
13649;SDS011;6898;50.918;4.688;2022-09-30T09:41:09;20.25;;;15.65;;
13649;SDS011;6898;50.918;4.688;2022-09-30T09:43:46;21.80;;;16.73;;
13649;SDS011;6898;50.918;4.688;2022-09-30T09:46:19;19.52;;;16.05;;
13649;SDS011;6898;50.918;4.688;2022-09-30T09:51:38;16.23;;;13.35;;
13649;SDS011;6898;50.918;4.688;2022-09-30T09:54:08;16.92;;;13.63;;
13649;SDS011;6898;50.918;4.688;2022-09-30T09:56:40;16.13;;;13.38;;
13649;SDS011;6898;50.918;4.688;2022-09-30T09:59:10;17.85;;;14.20;;
13649;SDS011;6898;50.918;4.688;2022-09-30T10:01:40;16.67;;;13.98;;
13649;SDS011;6898;50.918;4.688;2022-09-30T10:04:11;15.90;;;12.70;;
13649;SDS011;6898;50.918;4.688;2022-09-30T10:06:42;15.90;;;12.32;;
13649;SDS011;6898;50.918;4.688;2022-09-30T10:09:21;13.00;;;10.40;;
13649;SDS011;6898;50.918;4.688;2022-09-30T10:11:51;13.10;;;9.45;;
13649;SDS011;6898;50.918;4.688;2022-09-30T10:14:20;9.95;;;8.63;;
13649;SDS011;6898;50.918;4.688;2022-09-30T10:16:48;8.95;;;6.78;;
13649;SDS011;6898;50.918;4.688;2022-09-30T10:19:17;7.40;;;5.57;;
13649;SDS011;6898;50.918;4.688;2022-09-30T10:21:47;9.13;;;6.10;;
13649;SDS011;6898;50.918;4.688;2022-09-30T10:24:23;8.18;;;5.85;;
13649;SDS011;6898;50.918;4.688;2022-09-30T10:26:55;3.80;;;2.60;;
13649;SDS011;6898;50.918;4.688;2022-09-30T10:29:25;8.00;;;3.03;;
13649;SDS011;6898;50.918;4.688;2022-09-30T10:31:53;4.22;;;2.80;;
13649;SDS011;6898;50.918;4.688;2022-09-30T10:34:23;3.38;;;2.08;;
13649;SDS011;6898;50.918;4.688;2022-09-30T10:36:52;4.55;;;2.08;;
13649;SDS011;6898;50.918;4.688;2022-09-30T10:39:22;3.80;;;2.05;;
13649;SDS011;6898;50.918;4.688;2022-09-30T10:41:59;3.03;;;1.73;;
13649;SDS011;6898;50.918;4.688;2022-09-30T10:44:28;3.45;;;1.70;;
13649;SDS011;6898;50.918;4.688;2022-09-30T10:46:57;3.10;;;1.90;;
13649;SDS011;6898;50.918;4.688;2022-09-30T10:49:29;4.50;;;1.90;;
13649;SDS011;6898;50.918;4.688;2022-09-30T10:51:58;3.50;;;1.95;;
13649;SDS011;6898;50.918;4.688;2022-09-30T10:54:33;3.72;;;1.83;;
13649;SDS011;6898;50.918;4.688;2022-09-30T10:57:03;2.43;;;1.73;;
13649;SDS011;6898;50.918;4.688;2022-09-30T10:59:32;3.88;;;1.70;;
13649;SDS011;6898;50.918;4.688;2022-09-30T11:02:04;2.03;;;1.80;;
13649;SDS011;6898;50.918;4.688;2022-09-30T11:04:41;3.03;;;1.95;;
13649;SDS011;6898;50.918;4.688;2022-09-30T11:07:14;2.90;;;2.30;;
13649;SDS011;6898;50.918;4.688;2022-09-30T11:09:45;3.33;;;1.90;;
13649;SDS011;6898;50.918;4.688;2022-09-30T11:12:18;3.23;;;2.17;;
13649;SDS011;6898;50.918;4.688;2022-09-30T11:14:48;2.78;;;2.10;;
13649;SDS011;6898;50.918;4.688;2022-09-30T11:17:22;2.70;;;2.10;;
13649;SDS011;6898;50.918;4.688;2022-09-30T11:19:55;8.48;;;2.63;;
13649;SDS011;6898;50.918;4.688;2022-09-30T11:22:32;3.15;;;2.47;;
13649;SDS011;6898;50.918;4.688;2022-09-30T11:25:00;4.78;;;2.33;;
13649;SDS011;6898;50.918;4.688;2022-09-30T11:27:37;4.10;;;2.57;;
13649;SDS011;6898;50.918;4.688;2022-09-30T11:30:09;3.13;;;2.53;;
13649;SDS011;6898;50.918;4.688;2022-09-30T11:32:41;3.40;;;2.30;;
13649;SDS011;6898;50.918;4.688;2022-09-30T11:35:17;4.60;;;2.65;;
13649;SDS011;6898;50.918;4.688;2022-09-30T11:37:55;3.40;;;2.60;;
13649;SDS011;6898;50.918;4.688;2022-09-30T11:40:32;3.13;;;2.30;;
13649;SDS011;6898;50.918;4.688;2022-09-30T11:43:10;3.67;;;2.45;;
13649;SDS011;6898;50.918;4.688;2022-09-30T11:45:47;3.67;;;2.70;;
13649;SDS011;6898;50.918;4.688;2022-09-30T11:48:26;7.03;;;2.93;;
13649;SDS011;6898;50.918;4.688;2022-09-30T11:51:01;4.53;;;2.72;;
13649;SDS011;6898;50.918;4.688;2022-09-30T11:53:38;4.25;;;2.50;;
13649;SDS011;6898;50.918;4.688;2022-09-30T11:56:16;7.78;;;4.50;;
13649;SDS011;6898;50.918;4.688;2022-09-30T11:58:49;3.00;;;2.10;;
13649;SDS011;6898;50.918;4.688;2022-09-30T12:01:19;4.00;;;1.98;;
13649;SDS011;6898;50.918;4.688;2022-09-30T12:03:53;4.82;;;2.20;;
13649;SDS011;6898;50.918;4.688;2022-09-30T12:06:23;7.10;;;2.50;;
13649;SDS011;6898;50.918;4.688;2022-09-30T12:08:54;3.10;;;2.58;;
13649;SDS011;6898;50.918;4.688;2022-09-30T12:11:28;5.25;;;2.83;;
13649;SDS011;6898;50.918;4.688;2022-09-30T12:13:59;4.35;;;2.75;;
13649;SDS011;6898;50.918;4.688;2022-09-30T12:16:30;4.15;;;2.80;;
13649;SDS011;6898;50.918;4.688;2022-09-30T12:19:01;5.90;;;3.00;;
13649;SDS011;6898;50.918;4.688;2022-09-30T12:21:31;5.13;;;3.00;;
13649;SDS011;6898;50.918;4.688;2022-09-30T12:24:02;6.43;;;3.22;;
13649;SDS011;6898;50.918;4.688;2022-09-30T12:26:33;6.07;;;3.60;;
13649;SDS011;6898;50.918;4.688;2022-09-30T12:29:04;5.13;;;2.80;;
13649;SDS011;6898;50.918;4.688;2022-09-30T12:34:39;7.78;;;3.75;;
13649;SDS011;6898;50.918;4.688;2022-09-30T12:37:20;5.35;;;3.60;;
13649;SDS011;6898;50.918;4.688;2022-09-30T12:45:25;5.43;;;3.20;;
13649;SDS011;6898;50.918;4.688;2022-09-30T12:48:01;4.87;;;3.00;;
13649;SDS011;6898;50.918;4.688;2022-09-30T12:50:33;7.20;;;3.42;;
13649;SDS011;6898;50.918;4.688;2022-09-30T12:53:08;5.47;;;3.20;;
13649;SDS011;6898;50.918;4.688;2022-09-30T12:55:38;5.65;;;3.28;;
13649;SDS011;6898;50.918;4.688;2022-09-30T12:58:12;5.80;;;3.80;;
13649;SDS011;6898;50.918;4.688;2022-09-30T13:00:45;6.43;;;3.67;;
13649;SDS011;6898;50.918;4.688;2022-09-30T13:03:25;4.37;;;3.33;;
13649;SDS011;6898;50.918;4.688;2022-09-30T13:06:00;5.43;;;3.72;;
13649;SDS011;6898;50.918;4.688;2022-09-30T13:14:15;5.35;;;4.20;;
13649;SDS011;6898;50.918;4.688;2022-09-30T13:19:44;6.22;;;4.88;;
13649;SDS011;6898;50.918;4.688;2022-09-30T13:25:15;5.93;;;4.53;;
13649;SDS011;6898;50.918;4.688;2022-09-30T13:27:44;7.53;;;4.57;;
13649;SDS011;6898;50.918;4.688;2022-09-30T13:35:49;6.67;;;4.20;;
13649;SDS011;6898;50.918;4.688;2022-09-30T13:38:18;6.05;;;4.10;;
13649;SDS011;6898;50.918;4.688;2022-09-30T13:40:51;6.43;;;3.88;;
13649;SDS011;6898;50.918;4.688;2022-09-30T13:43:29;5.70;;;3.40;;
13649;SDS011;6898;50.918;4.688;2022-09-30T13:46:03;4.57;;;3.20;;
13649;SDS011;6898;50.918;4.688;2022-09-30T13:48:33;3.75;;;3.08;;
13649;SDS011;6898;50.918;4.688;2022-09-30T13:51:06;5.80;;;3.40;;
13649;SDS011;6898;50.918;4.688;2022-09-30T13:53:35;4.55;;;3.25;;
13649;SDS011;6898;50.918;4.688;2022-09-30T13:56:05;5.70;;;3.40;;
13649;SDS011;6898;50.918;4.688;2022-09-30T13:58:41;6.18;;;3.55;;
13649;SDS011;6898;50.918;4.688;2022-09-30T14:01:17;3.88;;;3.13;;
13649;SDS011;6898;50.918;4.688;2022-09-30T14:03:51;4.75;;;3.40;;
13649;SDS011;6898;50.918;4.688;2022-09-30T14:06:26;4.63;;;3.20;;
13649;SDS011;6898;50.918;4.688;2022-09-30T14:09:04;4.00;;;3.00;;
13649;SDS011;6898;50.918;4.688;2022-09-30T14:11:39;3.60;;;3.03;;
13649;SDS011;6898;50.918;4.688;2022-09-30T14:14:16;4.97;;;3.10;;
13649;SDS011;6898;50.918;4.688;2022-09-30T14:16:53;4.57;;;2.80;;
13649;SDS011;6898;50.918;4.688;2022-09-30T14:19:29;2.97;;;2.40;;
13649;SDS011;6898;50.918;4.688;2022-09-30T14:22:03;4.70;;;2.70;;
13649;SDS011;6898;50.918;4.688;2022-09-30T14:24:34;5.15;;;2.95;;
13649;SDS011;6898;50.918;4.688;2022-09-30T14:30:04;4.30;;;2.60;;
13649;SDS011;6898;50.918;4.688;2022-09-30T14:32:33;4.78;;;2.75;;
13649;SDS011;6898;50.918;4.688;2022-09-30T14:35:05;3.50;;;2.60;;
13649;SDS011;6898;50.918;4.688;2022-09-30T14:37:36;3.60;;;2.63;;
13649;SDS011;6898;50.918;4.688;2022-09-30T14:40:07;5.35;;;3.17;;
13649;SDS011;6898;50.918;4.688;2022-09-30T14:42:39;4.70;;;2.78;;
13649;SDS011;6898;50.918;4.688;2022-09-30T14:45:11;3.45;;;2.60;;
13649;SDS011;6898;50.918;4.688;2022-09-30T14:47:43;3.28;;;2.40;;
13649;SDS011;6898;50.918;4.688;2022-09-30T14:50:15;4.53;;;2.70;;
13649;SDS011;6898;50.918;4.688;2022-09-30T14:52:47;3.42;;;2.65;;
13649;SDS011;6898;50.918;4.688;2022-09-30T14:55:24;4.85;;;2.60;;
13649;SDS011;6898;50.918;4.688;2022-09-30T14:57:53;3.00;;;2.70;;
13649;SDS011;6898;50.918;4.688;2022-09-30T15:00:25;4.55;;;2.53;;
13649;SDS011;6898;50.918;4.688;2022-09-30T15:02:55;3.03;;;2.58;;
13649;SDS011;6898;50.918;4.688;2022-09-30T15:05:24;3.65;;;2.30;;
13649;SDS011;6898;50.918;4.688;2022-09-30T15:07:54;3.83;;;1.85;;
13649;SDS011;6898;50.918;4.688;2022-09-30T15:10:23;5.00;;;2.40;;
13649;SDS011;6898;50.918;4.688;2022-09-30T15:12:52;3.38;;;2.50;;
13649;SDS011;6898;50.918;4.688;2022-09-30T15:15:22;3.58;;;2.60;;
13649;SDS011;6898;50.918;4.688;2022-09-30T15:17:51;3.05;;;2.70;;
13649;SDS011;6898;50.918;4.688;2022-09-30T15:20:23;3.72;;;2.60;;
13649;SDS011;6898;50.918;4.688;2022-09-30T15:22:54;3.40;;;2.47;;
13649;SDS011;6898;50.918;4.688;2022-09-30T15:25:23;4.20;;;2.42;;
13649;SDS011;6898;50.918;4.688;2022-09-30T15:27:54;3.30;;;2.65;;
13649;SDS011;6898;50.918;4.688;2022-09-30T15:30:24;5.00;;;2.53;;
13649;SDS011;6898;50.918;4.688;2022-09-30T15:35:26;4.40;;;2.70;;
13649;SDS011;6898;50.918;4.688;2022-09-30T15:38:06;4.18;;;2.90;;
13649;SDS011;6898;50.918;4.688;2022-09-30T15:40:35;4.10;;;3.10;;
13649;SDS011;6898;50.918;4.688;2022-09-30T15:43:15;4.13;;;3.10;;
13649;SDS011;6898;50.918;4.688;2022-09-30T15:45:53;4.68;;;3.05;;
13649;SDS011;6898;50.918;4.688;2022-09-30T15:48:31;4.43;;;3.15;;
13649;SDS011;6898;50.918;4.688;2022-09-30T15:51:21;5.07;;;3.08;;
13649;SDS011;6898;50.918;4.688;2022-09-30T15:53:51;3.83;;;3.00;;